sensor_id;sensor_type;location;lat;lon;timestamp;P1;durP1;ratioP1;P2;durP2;ratioP2
2434;SDS011;1228;51.022;6.764;2022-12-07T00:01:05;11.53;;;10.37;;
2434;SDS011;1228;51.022;6.764;2022-12-07T00:03:42;13.47;;;12.13;;
2434;SDS011;1228;51.022;6.764;2022-12-07T00:06:10;14.17;;;11.47;;
2434;SDS011;1228;51.022;6.764;2022-12-07T00:08:38;17.57;;;11.43;;
2434;SDS011;1228;51.022;6.764;2022-12-07T00:11:14;18.97;;;12.10;;
2434;SDS011;1228;51.022;6.764;2022-12-07T00:13:42;20.30;;;11.10;;
2434;SDS011;1228;51.022;6.764;2022-12-07T00:16:09;10.97;;;10.17;;
2434;SDS011;1228;51.022;6.764;2022-12-07T00:18:39;14.50;;;12.57;;
2434;SDS011;1228;51.022;6.764;2022-12-07T00:21:10;12.50;;;11.30;;
2434;SDS011;1228;51.022;6.764;2022-12-07T00:24:05;15.47;;;10.57;;
2434;SDS011;1228;51.022;6.764;2022-12-07T00:26:32;13.07;;;11.67;;
2434;SDS011;1228;51.022;6.764;2022-12-07T00:29:00;12.23;;;10.20;;
2434;SDS011;1228;51.022;6.764;2022-12-07T00:31:32;12.77;;;11.57;;
2434;SDS011;1228;51.022;6.764;2022-12-07T00:34:00;13.13;;;11.80;;
2434;SDS011;1228;51.022;6.764;2022-12-07T00:36:26;13.53;;;11.90;;
2434;SDS011;1228;51.022;6.764;2022-12-07T00:38:52;15.10;;;13.17;;
2434;SDS011;1228;51.022;6.764;2022-12-07T00:41:22;16.80;;;12.83;;
2434;SDS011;1228;51.022;6.764;2022-12-07T00:43:50;16.63;;;10.73;;
2434;SDS011;1228;51.022;6.764;2022-12-07T00:46:16;21.13;;;12.90;;
2434;SDS011;1228;51.022;6.764;2022-12-07T00:48:43;12.40;;;11.20;;
2434;SDS011;1228;51.022;6.764;2022-12-07T00:51:09;13.27;;;11.57;;
2434;SDS011;1228;51.022;6.764;2022-12-07T00:53:37;13.00;;;11.07;;
2434;SDS011;1228;51.022;6.764;2022-12-07T00:56:09;11.03;;;10.03;;
2434;SDS011;1228;51.022;6.764;2022-12-07T00:58:37;15.00;;;10.87;;
2434;SDS011;1228;51.022;6.764;2022-12-07T01:01:04;13.77;;;11.40;;
2434;SDS011;1228;51.022;6.764;2022-12-07T01:03:31;14.23;;;12.90;;
2434;SDS011;1228;51.022;6.764;2022-12-07T01:05:57;11.23;;;10.13;;
2434;SDS011;1228;51.022;6.764;2022-12-07T01:08:24;17.07;;;12.57;;
2434;SDS011;1228;51.022;6.764;2022-12-07T01:11:25;15.00;;;11.87;;
2434;SDS011;1228;51.022;6.764;2022-12-07T01:13:44;12.63;;;11.47;;
2434;SDS011;1228;51.022;6.764;2022-12-07T01:16:12;17.63;;;12.80;;
2434;SDS011;1228;51.022;6.764;2022-12-07T01:18:39;13.23;;;11.90;;
2434;SDS011;1228;51.022;6.764;2022-12-07T01:23:34;18.13;;;14.40;;
2434;SDS011;1228;51.022;6.764;2022-12-07T01:26:02;16.07;;;12.90;;
2434;SDS011;1228;51.022;6.764;2022-12-07T01:28:29;14.00;;;12.60;;
2434;SDS011;1228;51.022;6.764;2022-12-07T01:30:59;12.20;;;11.20;;
2434;SDS011;1228;51.022;6.764;2022-12-07T01:33:33;18.03;;;13.17;;
2434;SDS011;1228;51.022;6.764;2022-12-07T01:36:23;14.37;;;12.73;;
2434;SDS011;1228;51.022;6.764;2022-12-07T01:38:48;16.43;;;14.07;;
2434;SDS011;1228;51.022;6.764;2022-12-07T01:41:18;14.50;;;12.60;;
2434;SDS011;1228;51.022;6.764;2022-12-07T01:46:47;20.53;;;14.23;;
2434;SDS011;1228;51.022;6.764;2022-12-07T01:49:33;18.37;;;12.90;;
2434;SDS011;1228;51.022;6.764;2022-12-07T01:54:58;16.10;;;11.87;;
2434;SDS011;1228;51.022;6.764;2022-12-07T01:57:26;14.13;;;12.60;;
2434;SDS011;1228;51.022;6.764;2022-12-07T01:59:53;20.43;;;12.83;;
2434;SDS011;1228;51.022;6.764;2022-12-07T02:02:30;15.67;;;13.97;;
2434;SDS011;1228;51.022;6.764;2022-12-07T02:04:59;15.53;;;14.07;;
2434;SDS011;1228;51.022;6.764;2022-12-07T02:07:26;16.43;;;12.03;;
2434;SDS011;1228;51.022;6.764;2022-12-07T02:09:53;23.10;;;14.40;;
2434;SDS011;1228;51.022;6.764;2022-12-07T02:12:19;16.83;;;13.33;;
2434;SDS011;1228;51.022;6.764;2022-12-07T02:14:46;16.57;;;13.87;;
2434;SDS011;1228;51.022;6.764;2022-12-07T02:17:14;21.27;;;15.23;;
2434;SDS011;1228;51.022;6.764;2022-12-07T02:28:04;12.57;;;10.63;;
2434;SDS011;1228;51.022;6.764;2022-12-07T02:31:14;13.03;;;11.73;;
2434;SDS011;1228;51.022;6.764;2022-12-07T02:33:49;17.43;;;14.20;;
2434;SDS011;1228;51.022;6.764;2022-12-07T02:36:22;18.07;;;13.00;;
2434;SDS011;1228;51.022;6.764;2022-12-07T02:38:55;16.33;;;13.90;;
2434;SDS011;1228;51.022;6.764;2022-12-07T02:41:26;14.70;;;12.07;;
2434;SDS011;1228;51.022;6.764;2022-12-07T02:43:59;16.77;;;13.53;;
2434;SDS011;1228;51.022;6.764;2022-12-07T02:46:30;12.00;;;10.77;;
2434;SDS011;1228;51.022;6.764;2022-12-07T02:49:03;17.47;;;13.80;;
2434;SDS011;1228;51.022;6.764;2022-12-07T02:51:30;20.60;;;13.03;;
2434;SDS011;1228;51.022;6.764;2022-12-07T02:53:57;14.47;;;12.73;;
2434;SDS011;1228;51.022;6.764;2022-12-07T03:05:13;13.40;;;11.07;;
2434;SDS011;1228;51.022;6.764;2022-12-07T03:10:50;21.37;;;15.10;;
2434;SDS011;1228;51.022;6.764;2022-12-07T03:13:29;20.80;;;16.13;;
2434;SDS011;1228;51.022;6.764;2022-12-07T03:16:08;21.83;;;15.43;;
2434;SDS011;1228;51.022;6.764;2022-12-07T03:19:25;18.63;;;14.83;;
2434;SDS011;1228;51.022;6.764;2022-12-07T03:21:42;21.10;;;15.50;;
2434;SDS011;1228;51.022;6.764;2022-12-07T03:24:12;23.73;;;14.63;;
2434;SDS011;1228;51.022;6.764;2022-12-07T03:26:51;17.83;;;14.23;;
2434;SDS011;1228;51.022;6.764;2022-12-07T03:29:25;19.50;;;14.67;;
2434;SDS011;1228;51.022;6.764;2022-12-07T03:32:02;19.90;;;13.67;;
2434;SDS011;1228;51.022;6.764;2022-12-07T03:34:39;19.07;;;14.33;;
2434;SDS011;1228;51.022;6.764;2022-12-07T03:42:36;30.13;;;17.87;;
2434;SDS011;1228;51.022;6.764;2022-12-07T03:45:02;19.70;;;13.67;;
2434;SDS011;1228;51.022;6.764;2022-12-07T03:47:30;22.17;;;14.57;;
2434;SDS011;1228;51.022;6.764;2022-12-07T03:50:28;19.67;;;13.57;;
2434;SDS011;1228;51.022;6.764;2022-12-07T03:53:24;15.60;;;12.43;;
2434;SDS011;1228;51.022;6.764;2022-12-07T03:56:04;22.50;;;16.40;;
2434;SDS011;1228;51.022;6.764;2022-12-07T03:58:31;21.27;;;15.00;;
2434;SDS011;1228;51.022;6.764;2022-12-07T04:00:58;19.30;;;16.27;;
2434;SDS011;1228;51.022;6.764;2022-12-07T04:03:23;22.97;;;15.07;;
2434;SDS011;1228;51.022;6.764;2022-12-07T04:05:49;23.20;;;15.83;;
2434;SDS011;1228;51.022;6.764;2022-12-07T04:08:14;23.70;;;15.27;;
2434;SDS011;1228;51.022;6.764;2022-12-07T04:10:40;18.17;;;14.57;;
2434;SDS011;1228;51.022;6.764;2022-12-07T04:13:06;16.00;;;12.30;;
2434;SDS011;1228;51.022;6.764;2022-12-07T04:15:31;21.10;;;15.80;;
2434;SDS011;1228;51.022;6.764;2022-12-07T04:17:57;20.17;;;14.87;;
2434;SDS011;1228;51.022;6.764;2022-12-07T04:20:22;25.17;;;14.77;;
2434;SDS011;1228;51.022;6.764;2022-12-07T04:22:49;19.53;;;15.13;;
2434;SDS011;1228;51.022;6.764;2022-12-07T04:25:14;19.13;;;16.77;;
2434;SDS011;1228;51.022;6.764;2022-12-07T04:27:40;21.23;;;14.70;;
2434;SDS011;1228;51.022;6.764;2022-12-07T04:30:06;26.83;;;15.70;;
2434;SDS011;1228;51.022;6.764;2022-12-07T04:32:32;20.67;;;16.57;;
2434;SDS011;1228;51.022;6.764;2022-12-07T04:34:57;18.17;;;15.97;;
2434;SDS011;1228;51.022;6.764;2022-12-07T04:37:23;14.90;;;13.40;;
2434;SDS011;1228;51.022;6.764;2022-12-07T04:39:49;18.63;;;14.60;;
2434;SDS011;1228;51.022;6.764;2022-12-07T04:42:15;18.20;;;14.27;;
2434;SDS011;1228;51.022;6.764;2022-12-07T04:44:41;20.50;;;14.77;;
2434;SDS011;1228;51.022;6.764;2022-12-07T04:47:06;15.73;;;14.03;;
2434;SDS011;1228;51.022;6.764;2022-12-07T04:49:32;14.07;;;12.20;;
2434;SDS011;1228;51.022;6.764;2022-12-07T04:51:58;20.27;;;16.23;;
2434;SDS011;1228;51.022;6.764;2022-12-07T04:54:24;15.73;;;13.00;;
2434;SDS011;1228;51.022;6.764;2022-12-07T04:56:49;14.70;;;13.27;;
2434;SDS011;1228;51.022;6.764;2022-12-07T04:59:15;14.17;;;12.70;;
2434;SDS011;1228;51.022;6.764;2022-12-07T05:01:42;16.97;;;13.50;;
2434;SDS011;1228;51.022;6.764;2022-12-07T05:04:08;15.53;;;13.87;;
2434;SDS011;1228;51.022;6.764;2022-12-07T05:06:34;17.70;;;15.73;;
2434;SDS011;1228;51.022;6.764;2022-12-07T05:09:00;19.03;;;14.57;;
2434;SDS011;1228;51.022;6.764;2022-12-07T05:11:26;20.13;;;14.10;;
2434;SDS011;1228;51.022;6.764;2022-12-07T05:14:08;25.13;;;15.27;;
2434;SDS011;1228;51.022;6.764;2022-12-07T05:16:52;20.13;;;13.57;;
2434;SDS011;1228;51.022;6.764;2022-12-07T05:19:18;15.87;;;14.20;;
2434;SDS011;1228;51.022;6.764;2022-12-07T05:21:44;21.23;;;14.60;;
2434;SDS011;1228;51.022;6.764;2022-12-07T05:24:11;19.30;;;16.23;;
2434;SDS011;1228;51.022;6.764;2022-12-07T05:26:37;21.67;;;15.60;;
2434;SDS011;1228;51.022;6.764;2022-12-07T05:29:03;18.77;;;14.70;;
2434;SDS011;1228;51.022;6.764;2022-12-07T05:31:29;20.23;;;16.37;;
2434;SDS011;1228;51.022;6.764;2022-12-07T05:33:54;21.70;;;15.77;;
2434;SDS011;1228;51.022;6.764;2022-12-07T05:36:20;15.07;;;13.43;;
2434;SDS011;1228;51.022;6.764;2022-12-07T05:38:46;21.87;;;13.97;;
2434;SDS011;1228;51.022;6.764;2022-12-07T05:41:12;17.73;;;14.57;;
2434;SDS011;1228;51.022;6.764;2022-12-07T05:43:58;23.87;;;13.87;;
2434;SDS011;1228;51.022;6.764;2022-12-07T05:46:24;22.27;;;16.70;;
2434;SDS011;1228;51.022;6.764;2022-12-07T05:48:50;16.00;;;14.13;;
2434;SDS011;1228;51.022;6.764;2022-12-07T05:51:16;23.80;;;16.43;;
2434;SDS011;1228;51.022;6.764;2022-12-07T05:53:41;15.83;;;13.07;;
2434;SDS011;1228;51.022;6.764;2022-12-07T05:56:07;13.90;;;12.30;;
2434;SDS011;1228;51.022;6.764;2022-12-07T05:58:33;18.97;;;14.97;;
2434;SDS011;1228;51.022;6.764;2022-12-07T06:01:17;17.77;;;12.57;;
2434;SDS011;1228;51.022;6.764;2022-12-07T06:03:42;15.30;;;12.03;;
2434;SDS011;1228;51.022;6.764;2022-12-07T06:06:09;16.53;;;14.97;;
2434;SDS011;1228;51.022;6.764;2022-12-07T06:08:35;21.20;;;13.50;;
2434;SDS011;1228;51.022;6.764;2022-12-07T06:11:00;18.83;;;12.80;;
2434;SDS011;1228;51.022;6.764;2022-12-07T06:13:45;18.40;;;15.80;;
2434;SDS011;1228;51.022;6.764;2022-12-07T06:16:10;25.87;;;14.43;;
2434;SDS011;1228;51.022;6.764;2022-12-07T06:18:36;18.53;;;14.57;;
2434;SDS011;1228;51.022;6.764;2022-12-07T06:21:01;25.27;;;13.13;;
2434;SDS011;1228;51.022;6.764;2022-12-07T06:23:27;21.27;;;13.27;;
2434;SDS011;1228;51.022;6.764;2022-12-07T06:25:52;25.73;;;16.33;;
2434;SDS011;1228;51.022;6.764;2022-12-07T06:28:18;22.23;;;14.33;;
2434;SDS011;1228;51.022;6.764;2022-12-07T06:30:44;16.10;;;14.40;;
2434;SDS011;1228;51.022;6.764;2022-12-07T06:33:09;22.47;;;15.40;;
2434;SDS011;1228;51.022;6.764;2022-12-07T06:35:35;19.60;;;14.53;;
2434;SDS011;1228;51.022;6.764;2022-12-07T06:38:00;21.17;;;14.83;;
2434;SDS011;1228;51.022;6.764;2022-12-07T06:40:26;15.37;;;13.83;;
2434;SDS011;1228;51.022;6.764;2022-12-07T06:42:51;16.70;;;14.73;;
2434;SDS011;1228;51.022;6.764;2022-12-07T06:45:17;19.50;;;15.30;;
2434;SDS011;1228;51.022;6.764;2022-12-07T06:47:43;14.63;;;13.10;;
2434;SDS011;1228;51.022;6.764;2022-12-07T06:50:08;23.60;;;17.13;;
2434;SDS011;1228;51.022;6.764;2022-12-07T06:52:34;19.07;;;14.80;;
2434;SDS011;1228;51.022;6.764;2022-12-07T06:55:00;25.03;;;16.03;;
2434;SDS011;1228;51.022;6.764;2022-12-07T06:57:25;16.13;;;13.93;;
2434;SDS011;1228;51.022;6.764;2022-12-07T06:59:51;19.10;;;15.33;;
2434;SDS011;1228;51.022;6.764;2022-12-07T07:02:17;23.73;;;15.83;;
2434;SDS011;1228;51.022;6.764;2022-12-07T07:04:43;16.83;;;13.87;;
2434;SDS011;1228;51.022;6.764;2022-12-07T07:07:08;22.20;;;15.73;;
2434;SDS011;1228;51.022;6.764;2022-12-07T07:09:34;16.40;;;14.63;;
2434;SDS011;1228;51.022;6.764;2022-12-07T07:11:59;25.90;;;17.33;;
2434;SDS011;1228;51.022;6.764;2022-12-07T07:14:25;20.80;;;15.93;;
2434;SDS011;1228;51.022;6.764;2022-12-07T07:16:51;20.13;;;13.63;;
2434;SDS011;1228;51.022;6.764;2022-12-07T07:19:16;21.50;;;17.13;;
2434;SDS011;1228;51.022;6.764;2022-12-07T07:21:42;19.93;;;15.97;;
2434;SDS011;1228;51.022;6.764;2022-12-07T07:24:07;19.20;;;15.43;;
2434;SDS011;1228;51.022;6.764;2022-12-07T07:26:33;20.47;;;16.13;;
2434;SDS011;1228;51.022;6.764;2022-12-07T07:28:58;17.37;;;15.43;;
2434;SDS011;1228;51.022;6.764;2022-12-07T07:31:24;25.50;;;15.57;;
2434;SDS011;1228;51.022;6.764;2022-12-07T07:33:50;21.03;;;16.07;;
2434;SDS011;1228;51.022;6.764;2022-12-07T07:36:15;21.70;;;15.97;;
2434;SDS011;1228;51.022;6.764;2022-12-07T07:38:42;19.57;;;16.20;;
2434;SDS011;1228;51.022;6.764;2022-12-07T07:41:07;15.27;;;13.70;;
2434;SDS011;1228;51.022;6.764;2022-12-07T07:43:33;14.27;;;12.80;;
2434;SDS011;1228;51.022;6.764;2022-12-07T07:45:59;15.77;;;14.10;;
2434;SDS011;1228;51.022;6.764;2022-12-07T07:48:24;19.67;;;14.90;;
2434;SDS011;1228;51.022;6.764;2022-12-07T07:50:50;24.57;;;16.03;;
2434;SDS011;1228;51.022;6.764;2022-12-07T07:53:16;18.83;;;16.43;;
2434;SDS011;1228;51.022;6.764;2022-12-07T07:55:49;34.60;;;20.03;;
2434;SDS011;1228;51.022;6.764;2022-12-07T07:58:15;23.33;;;19.67;;
2434;SDS011;1228;51.022;6.764;2022-12-07T08:00:41;26.27;;;17.03;;
2434;SDS011;1228;51.022;6.764;2022-12-07T08:03:07;19.07;;;14.60;;
2434;SDS011;1228;51.022;6.764;2022-12-07T08:05:32;17.07;;;15.23;;
2434;SDS011;1228;51.022;6.764;2022-12-07T08:07:58;15.13;;;11.13;;
2434;SDS011;1228;51.022;6.764;2022-12-07T08:10:24;13.43;;;11.77;;
2434;SDS011;1228;51.022;6.764;2022-12-07T08:12:49;21.23;;;16.40;;
2434;SDS011;1228;51.022;6.764;2022-12-07T08:15:35;21.70;;;13.37;;
2434;SDS011;1228;51.022;6.764;2022-12-07T08:18:02;20.37;;;13.87;;
2434;SDS011;1228;51.022;6.764;2022-12-07T08:20:30;28.23;;;14.43;;
2434;SDS011;1228;51.022;6.764;2022-12-07T08:22:56;21.90;;;11.97;;
2434;SDS011;1228;51.022;6.764;2022-12-07T08:25:22;19.80;;;13.77;;
2434;SDS011;1228;51.022;6.764;2022-12-07T08:27:48;13.83;;;12.33;;
2434;SDS011;1228;51.022;6.764;2022-12-07T08:30:15;14.70;;;12.97;;
2434;SDS011;1228;51.022;6.764;2022-12-07T08:32:40;12.90;;;11.47;;
2434;SDS011;1228;51.022;6.764;2022-12-07T08:35:06;15.27;;;12.43;;
2434;SDS011;1228;51.022;6.764;2022-12-07T08:37:32;18.90;;;13.87;;
2434;SDS011;1228;51.022;6.764;2022-12-07T08:39:58;17.43;;;12.60;;
2434;SDS011;1228;51.022;6.764;2022-12-07T08:42:24;15.17;;;13.60;;
2434;SDS011;1228;51.022;6.764;2022-12-07T08:44:54;18.93;;;12.80;;
2434;SDS011;1228;51.022;6.764;2022-12-07T08:47:20;18.77;;;13.50;;
2434;SDS011;1228;51.022;6.764;2022-12-07T08:49:47;18.40;;;14.33;;
2434;SDS011;1228;51.022;6.764;2022-12-07T08:52:13;14.47;;;12.20;;
2434;SDS011;1228;51.022;6.764;2022-12-07T08:54:39;13.93;;;11.33;;
2434;SDS011;1228;51.022;6.764;2022-12-07T08:57:06;17.73;;;15.47;;
2434;SDS011;1228;51.022;6.764;2022-12-07T08:59:32;16.43;;;12.77;;
2434;SDS011;1228;51.022;6.764;2022-12-07T09:02:00;18.30;;;14.07;;
2434;SDS011;1228;51.022;6.764;2022-12-07T09:04:26;23.00;;;14.97;;
2434;SDS011;1228;51.022;6.764;2022-12-07T09:06:53;14.80;;;13.30;;
2434;SDS011;1228;51.022;6.764;2022-12-07T09:09:19;22.03;;;12.57;;
2434;SDS011;1228;51.022;6.764;2022-12-07T09:11:45;21.13;;;16.50;;
2434;SDS011;1228;51.022;6.764;2022-12-07T09:14:11;16.47;;;14.53;;
2434;SDS011;1228;51.022;6.764;2022-12-07T09:16:37;13.03;;;11.67;;
2434;SDS011;1228;51.022;6.764;2022-12-07T09:19:03;15.27;;;13.43;;
2434;SDS011;1228;51.022;6.764;2022-12-07T09:21:29;22.73;;;12.83;;
2434;SDS011;1228;51.022;6.764;2022-12-07T09:23:54;18.40;;;15.73;;
2434;SDS011;1228;51.022;6.764;2022-12-07T09:26:20;21.97;;;13.40;;
2434;SDS011;1228;51.022;6.764;2022-12-07T09:28:45;14.57;;;13.03;;
2434;SDS011;1228;51.022;6.764;2022-12-07T09:31:11;15.87;;;13.40;;
2434;SDS011;1228;51.022;6.764;2022-12-07T09:33:37;25.47;;;18.73;;
2434;SDS011;1228;51.022;6.764;2022-12-07T09:36:03;15.63;;;13.03;;
2434;SDS011;1228;51.022;6.764;2022-12-07T09:38:30;20.67;;;14.83;;
2434;SDS011;1228;51.022;6.764;2022-12-07T09:40:57;19.40;;;16.80;;
2434;SDS011;1228;51.022;6.764;2022-12-07T09:43:29;25.20;;;15.80;;
2434;SDS011;1228;51.022;6.764;2022-12-07T09:45:55;16.40;;;13.03;;
2434;SDS011;1228;51.022;6.764;2022-12-07T09:48:35;18.33;;;11.37;;
2434;SDS011;1228;51.022;6.764;2022-12-07T09:51:10;18.13;;;11.37;;
2434;SDS011;1228;51.022;6.764;2022-12-07T09:53:47;20.63;;;11.23;;
2434;SDS011;1228;51.022;6.764;2022-12-07T09:56:14;13.63;;;12.00;;
2434;SDS011;1228;51.022;6.764;2022-12-07T09:58:41;17.07;;;12.50;;
2434;SDS011;1228;51.022;6.764;2022-12-07T10:03:37;23.43;;;11.70;;
2434;SDS011;1228;51.022;6.764;2022-12-07T10:06:05;15.43;;;11.77;;
2434;SDS011;1228;51.022;6.764;2022-12-07T10:08:32;10.53;;;9.53;;
2434;SDS011;1228;51.022;6.764;2022-12-07T10:10:58;12.40;;;11.03;;
2434;SDS011;1228;51.022;6.764;2022-12-07T10:13:36;16.87;;;11.43;;
2434;SDS011;1228;51.022;6.764;2022-12-07T10:16:03;14.57;;;10.53;;
2434;SDS011;1228;51.022;6.764;2022-12-07T10:18:31;13.57;;;12.00;;
2434;SDS011;1228;51.022;6.764;2022-12-07T10:21:04;12.10;;;10.50;;
2434;SDS011;1228;51.022;6.764;2022-12-07T10:23:30;13.37;;;11.93;;
2434;SDS011;1228;51.022;6.764;2022-12-07T10:25:55;14.00;;;12.37;;
2434;SDS011;1228;51.022;6.764;2022-12-07T10:28:21;13.97;;;10.43;;
2434;SDS011;1228;51.022;6.764;2022-12-07T10:30:48;14.07;;;12.67;;
2434;SDS011;1228;51.022;6.764;2022-12-07T10:36:00;18.67;;;12.03;;
2434;SDS011;1228;51.022;6.764;2022-12-07T10:38:53;11.90;;;10.73;;
2434;SDS011;1228;51.022;6.764;2022-12-07T10:41:24;11.03;;;9.93;;
2434;SDS011;1228;51.022;6.764;2022-12-07T10:43:51;14.70;;;9.93;;
2434;SDS011;1228;51.022;6.764;2022-12-07T10:46:28;10.47;;;9.57;;
2434;SDS011;1228;51.022;6.764;2022-12-07T10:49:05;11.97;;;9.13;;
2434;SDS011;1228;51.022;6.764;2022-12-07T11:00:52;13.00;;;10.30;;
2434;SDS011;1228;51.022;6.764;2022-12-07T11:08:52;17.03;;;11.07;;
2434;SDS011;1228;51.022;6.764;2022-12-07T11:22:56;13.70;;;8.37;;
2434;SDS011;1228;51.022;6.764;2022-12-07T11:31:22;10.07;;;8.17;;
2434;SDS011;1228;51.022;6.764;2022-12-07T11:36:37;8.77;;;8.00;;
2434;SDS011;1228;51.022;6.764;2022-12-07T11:39:44;13.03;;;9.20;;
2434;SDS011;1228;51.022;6.764;2022-12-07T11:42:15;13.37;;;9.40;;
2434;SDS011;1228;51.022;6.764;2022-12-07T11:52:46;9.53;;;8.63;;
2434;SDS011;1228;51.022;6.764;2022-12-07T11:55:26;13.37;;;9.03;;
2434;SDS011;1228;51.022;6.764;2022-12-07T11:58:06;9.93;;;8.97;;
2434;SDS011;1228;51.022;6.764;2022-12-07T12:00:46;12.73;;;9.17;;
2434;SDS011;1228;51.022;6.764;2022-12-07T12:03:27;14.70;;;9.37;;
2434;SDS011;1228;51.022;6.764;2022-12-07T12:05:58;11.40;;;8.80;;
2434;SDS011;1228;51.022;6.764;2022-12-07T12:08:27;11.87;;;10.67;;
2434;SDS011;1228;51.022;6.764;2022-12-07T12:16:52;8.20;;;7.60;;
2434;SDS011;1228;51.022;6.764;2022-12-07T12:22:27;11.03;;;9.63;;
2434;SDS011;1228;51.022;6.764;2022-12-07T12:25:02;10.17;;;8.17;;
2434;SDS011;1228;51.022;6.764;2022-12-07T12:27:31;12.10;;;10.30;;
2434;SDS011;1228;51.022;6.764;2022-12-07T12:30:00;18.73;;;8.97;;
2434;SDS011;1228;51.022;6.764;2022-12-07T12:32:41;11.33;;;9.03;;
2434;SDS011;1228;51.022;6.764;2022-12-07T12:40:56;9.57;;;8.67;;
2434;SDS011;1228;51.022;6.764;2022-12-07T12:54:39;9.90;;;8.97;;
2434;SDS011;1228;51.022;6.764;2022-12-07T12:57:24;19.17;;;9.17;;
2434;SDS011;1228;51.022;6.764;2022-12-07T13:02:29;14.27;;;11.10;;
2434;SDS011;1228;51.022;6.764;2022-12-07T13:08:28;15.77;;;11.43;;
2434;SDS011;1228;51.022;6.764;2022-12-07T13:18:48;14.87;;;10.20;;
2434;SDS011;1228;51.022;6.764;2022-12-07T13:20:56;23.27;;;11.27;;
2434;SDS011;1228;51.022;6.764;2022-12-07T13:31:45;12.33;;;11.10;;
2434;SDS011;1228;51.022;6.764;2022-12-07T13:36:59;12.60;;;10.80;;
2434;SDS011;1228;51.022;6.764;2022-12-07T13:39:29;11.40;;;10.33;;
2434;SDS011;1228;51.022;6.764;2022-12-07T13:41:55;14.60;;;10.73;;
2434;SDS011;1228;51.022;6.764;2022-12-07T13:44:23;10.77;;;9.40;;
2434;SDS011;1228;51.022;6.764;2022-12-07T13:49:31;12.10;;;11.00;;
2434;SDS011;1228;51.022;6.764;2022-12-07T13:52:15;10.90;;;9.73;;
2434;SDS011;1228;51.022;6.764;2022-12-07T13:54:45;10.30;;;9.47;;
2434;SDS011;1228;51.022;6.764;2022-12-07T13:57:12;11.37;;;10.27;;
2434;SDS011;1228;51.022;6.764;2022-12-07T13:59:38;9.60;;;8.60;;
2434;SDS011;1228;51.022;6.764;2022-12-07T14:02:17;11.27;;;10.13;;
2434;SDS011;1228;51.022;6.764;2022-12-07T14:04:45;12.27;;;9.23;;
2434;SDS011;1228;51.022;6.764;2022-12-07T14:07:21;8.87;;;8.10;;
2434;SDS011;1228;51.022;6.764;2022-12-07T14:09:55;10.20;;;8.80;;
2434;SDS011;1228;51.022;6.764;2022-12-07T14:12:31;11.53;;;9.57;;
2434;SDS011;1228;51.022;6.764;2022-12-07T14:15:00;10.23;;;9.27;;
2434;SDS011;1228;51.022;6.764;2022-12-07T14:17:27;14.63;;;8.40;;
2434;SDS011;1228;51.022;6.764;2022-12-07T14:20:00;11.30;;;9.97;;
2434;SDS011;1228;51.022;6.764;2022-12-07T14:22:30;8.80;;;7.87;;
2434;SDS011;1228;51.022;6.764;2022-12-07T14:27:47;9.27;;;8.43;;
2434;SDS011;1228;51.022;6.764;2022-12-07T14:30:14;10.23;;;9.23;;
2434;SDS011;1228;51.022;6.764;2022-12-07T14:32:41;13.57;;;10.13;;
2434;SDS011;1228;51.022;6.764;2022-12-07T14:35:09;9.13;;;8.07;;
2434;SDS011;1228;51.022;6.764;2022-12-07T14:37:37;10.00;;;9.00;;
2434;SDS011;1228;51.022;6.764;2022-12-07T14:40:04;11.50;;;8.10;;
2434;SDS011;1228;51.022;6.764;2022-12-07T14:42:31;9.13;;;8.30;;
2434;SDS011;1228;51.022;6.764;2022-12-07T14:44:59;9.23;;;8.33;;
2434;SDS011;1228;51.022;6.764;2022-12-07T14:47:25;8.80;;;8.10;;
2434;SDS011;1228;51.022;6.764;2022-12-07T14:49:52;9.03;;;8.17;;
2434;SDS011;1228;51.022;6.764;2022-12-07T14:52:21;9.97;;;9.07;;
2434;SDS011;1228;51.022;6.764;2022-12-07T14:54:49;7.47;;;6.80;;
2434;SDS011;1228;51.022;6.764;2022-12-07T14:57:15;7.30;;;6.80;;
2434;SDS011;1228;51.022;6.764;2022-12-07T14:59:41;7.33;;;6.83;;
2434;SDS011;1228;51.022;6.764;2022-12-07T15:02:09;9.17;;;7.77;;
2434;SDS011;1228;51.022;6.764;2022-12-07T15:04:36;10.70;;;7.30;;
2434;SDS011;1228;51.022;6.764;2022-12-07T15:07:02;10.93;;;7.37;;
2434;SDS011;1228;51.022;6.764;2022-12-07T15:09:29;7.37;;;6.77;;
2434;SDS011;1228;51.022;6.764;2022-12-07T15:11:55;8.47;;;7.67;;
2434;SDS011;1228;51.022;6.764;2022-12-07T15:14:20;8.17;;;7.47;;
2434;SDS011;1228;51.022;6.764;2022-12-07T15:16:46;8.73;;;7.93;;
2434;SDS011;1228;51.022;6.764;2022-12-07T15:19:13;8.63;;;8.00;;
2434;SDS011;1228;51.022;6.764;2022-12-07T15:21:40;9.93;;;8.93;;
2434;SDS011;1228;51.022;6.764;2022-12-07T15:24:07;8.63;;;7.77;;
2434;SDS011;1228;51.022;6.764;2022-12-07T15:26:34;9.47;;;8.43;;
2434;SDS011;1228;51.022;6.764;2022-12-07T15:29:00;19.73;;;11.93;;
2434;SDS011;1228;51.022;6.764;2022-12-07T15:31:25;15.77;;;10.83;;
2434;SDS011;1228;51.022;6.764;2022-12-07T15:33:51;15.43;;;13.27;;
2434;SDS011;1228;51.022;6.764;2022-12-07T15:36:24;15.87;;;12.30;;
2434;SDS011;1228;51.022;6.764;2022-12-07T15:38:51;12.23;;;11.00;;
2434;SDS011;1228;51.022;6.764;2022-12-07T15:41:17;13.53;;;11.30;;
2434;SDS011;1228;51.022;6.764;2022-12-07T15:43:43;10.03;;;9.13;;
2434;SDS011;1228;51.022;6.764;2022-12-07T15:46:31;16.37;;;11.80;;
2434;SDS011;1228;51.022;6.764;2022-12-07T15:48:57;8.93;;;8.23;;
2434;SDS011;1228;51.022;6.764;2022-12-07T15:51:23;9.37;;;8.70;;
2434;SDS011;1228;51.022;6.764;2022-12-07T15:53:50;9.17;;;8.47;;
2434;SDS011;1228;51.022;6.764;2022-12-07T15:56:16;10.60;;;9.70;;
2434;SDS011;1228;51.022;6.764;2022-12-07T15:58:41;9.37;;;8.43;;
2434;SDS011;1228;51.022;6.764;2022-12-07T16:01:14;9.20;;;8.23;;
2434;SDS011;1228;51.022;6.764;2022-12-07T16:03:43;12.10;;;9.93;;
2434;SDS011;1228;51.022;6.764;2022-12-07T16:06:10;10.50;;;9.67;;
2434;SDS011;1228;51.022;6.764;2022-12-07T16:08:36;10.10;;;9.27;;
2434;SDS011;1228;51.022;6.764;2022-12-07T16:11:07;19.90;;;9.67;;
2434;SDS011;1228;51.022;6.764;2022-12-07T16:13:33;10.10;;;9.30;;
2434;SDS011;1228;51.022;6.764;2022-12-07T16:16:03;10.60;;;9.43;;
2434;SDS011;1228;51.022;6.764;2022-12-07T16:18:34;9.93;;;9.13;;
2434;SDS011;1228;51.022;6.764;2022-12-07T16:21:00;9.40;;;8.70;;
2434;SDS011;1228;51.022;6.764;2022-12-07T16:23:26;12.60;;;10.43;;
2434;SDS011;1228;51.022;6.764;2022-12-07T16:25:51;9.67;;;8.77;;
2434;SDS011;1228;51.022;6.764;2022-12-07T16:28:17;9.37;;;8.47;;
2434;SDS011;1228;51.022;6.764;2022-12-07T16:30:43;9.87;;;8.93;;
2434;SDS011;1228;51.022;6.764;2022-12-07T16:33:09;8.27;;;7.77;;
2434;SDS011;1228;51.022;6.764;2022-12-07T16:35:37;10.30;;;9.30;;
2434;SDS011;1228;51.022;6.764;2022-12-07T16:38:05;8.20;;;7.67;;
2434;SDS011;1228;51.022;6.764;2022-12-07T16:40:31;12.83;;;10.63;;
2434;SDS011;1228;51.022;6.764;2022-12-07T16:42:57;8.83;;;8.13;;
2434;SDS011;1228;51.022;6.764;2022-12-07T16:45:23;9.03;;;8.13;;
2434;SDS011;1228;51.022;6.764;2022-12-07T16:47:48;7.47;;;6.97;;
2434;SDS011;1228;51.022;6.764;2022-12-07T16:50:14;8.60;;;7.97;;
2434;SDS011;1228;51.022;6.764;2022-12-07T16:52:40;10.23;;;9.00;;
2434;SDS011;1228;51.022;6.764;2022-12-07T16:55:05;10.17;;;8.77;;
2434;SDS011;1228;51.022;6.764;2022-12-07T16:57:31;9.53;;;8.63;;
2434;SDS011;1228;51.022;6.764;2022-12-07T16:59:57;9.20;;;8.53;;
2434;SDS011;1228;51.022;6.764;2022-12-07T17:02:22;14.07;;;10.57;;
2434;SDS011;1228;51.022;6.764;2022-12-07T17:04:48;10.30;;;9.20;;
2434;SDS011;1228;51.022;6.764;2022-12-07T17:07:14;9.73;;;8.80;;
2434;SDS011;1228;51.022;6.764;2022-12-07T17:09:39;12.70;;;9.37;;
2434;SDS011;1228;51.022;6.764;2022-12-07T17:12:05;11.30;;;10.00;;
2434;SDS011;1228;51.022;6.764;2022-12-07T17:14:31;8.47;;;7.67;;
2434;SDS011;1228;51.022;6.764;2022-12-07T17:17:15;11.70;;;9.93;;
2434;SDS011;1228;51.022;6.764;2022-12-07T17:19:41;10.20;;;9.10;;
2434;SDS011;1228;51.022;6.764;2022-12-07T17:22:07;10.63;;;9.73;;